Batenbrock, Germany

2:26 PM CET on January 21, 2017 (GMT +0100)
Unterberg | | Change Station

Elev 157 ft 51.51 °N, 6.93 °E | Updated 10 minutes ago

Clear
Clear
39.4 °F
Feels Like 39 °F
N
1.2
Wind Variable Wind from SE
Gusts 3.1 mph

Today
High -- | Low -- °F
--% Chance of Precip.
Yesterday
High -- | Low -- °F
Precip. -- in
Pressure 30.39 in
Visibility -9999.0 miles
Clouds
Windchill 39 °F
Dew Point 31 °F
Humidity 72%
Rainfall 0.00 in
Snow Depth Not available.
8:25 AM 5:02 PM
Waning Crescent, 35% visible
METAR EDDL 211320Z 15007KT 120V180 CAVOK 06/M05 Q1029 NOSIG
Pressure 30.39 in
Visibility -9999.0 miles
Clouds
Windchill 39 °F
Dew Point 31 °F
Humidity 72%
Rainfall 0.00 in
Snow Depth Not available.
8:25 AM 5:02 PM
Waning Crescent, 35% visible
METAR EDDL 211320Z 15007KT 120V180 CAVOK 06/M05 Q1029 NOSIG

Get Your Daily Forecast Email!

Thanks for signing up!

Be on the lookout for a verification email in your inbox.

You'll start receiving the daily forecast at 8 AM.

×

10-Day Weather Forecast

×

Almanac

Astronomy

Jan. 21, 2017 Rise Set
Actual Time
Civil Twilight
Nautical Twilight
Astronomical Twilight
Moon
Length of Visible Light
Length of Day
Tomorrow will be .
, % of the Moon is Illuminated

Today's Extremes

Country Highs Country Lows

Community

WunderPhotos

Upload Photos

1,962,540 photos uploaded!

WunderBlog® & News

Nearby

Air Quality

  Air Quality AQ Index Pollutant
Not available.

Snow Depth

Station Depth Elevation

Earthquake Activity

City Distance Mag. Time & Date
Minimum magnitude displayed is 2.5.

Coastal Water Temperatures

Place Temperature

Stations

Nearby Weather Stations

Station Location Temp. Windchill Dew Point Humidity Wind Precip. Elev Updated Type